createdAt,value
2018-12-02T00:00:38.030Z,15.55
2018-12-02T00:03:08.761Z,17.15
2018-12-02T00:05:39.009Z,15.65
2018-12-02T00:08:08.329Z,16.40
2018-12-02T00:10:37.410Z,15.65
2018-12-02T00:13:06.128Z,16.27
2018-12-02T00:15:36.397Z,16.02
2018-12-02T00:18:07.648Z,16.62
2018-12-02T00:20:36.164Z,15.98
2018-12-02T00:23:05.270Z,19.30
2018-12-02T00:25:33.850Z,16.57
2018-12-02T00:28:02.814Z,13.95
2018-12-02T00:30:32.398Z,15.30
2018-12-02T00:33:02.236Z,24.30
2018-12-02T00:35:32.050Z,21.45
2018-12-02T00:38:01.730Z,17.87
2018-12-02T00:40:30.163Z,16.27
2018-12-02T00:42:59.980Z,15.25
2018-12-02T00:45:30.097Z,15.38
2018-12-02T00:47:59.614Z,17.87
2018-12-02T00:50:28.317Z,15.30
2018-12-02T00:52:58.529Z,16.80
2018-12-02T00:55:36.366Z,15.30
2018-12-02T00:58:05.642Z,18.82
2018-12-02T01:00:35.242Z,20.68
2018-12-02T01:03:04.332Z,16.90
2018-12-02T01:05:33.258Z,18.17
2018-12-02T01:08:02.750Z,17.12
2018-12-02T01:10:31.426Z,24.60
2018-12-02T01:13:00.331Z,19.35
2018-12-02T01:15:30.448Z,17.07
2018-12-02T01:17:59.205Z,18.73
2018-12-02T01:20:27.631Z,15.95
2018-12-02T01:22:56.303Z,19.20
2018-12-02T01:25:24.983Z,24.60
2018-12-02T01:27:54.119Z,19.05
2018-12-02T01:30:24.512Z,28.32
2018-12-02T01:32:53.865Z,17.40
2018-12-02T01:35:22.900Z,16.50
2018-12-02T01:37:51.519Z,17.23
2018-12-02T01:40:22.190Z,19.30
2018-12-02T01:42:51.797Z,21.33
2018-12-02T01:45:25.585Z,16.90
2018-12-02T01:47:56.405Z,18.35
2018-12-02T01:50:26.482Z,21.35
2018-12-02T01:52:56.099Z,19.30
2018-12-02T01:55:24.603Z,20.15
2018-12-02T01:57:53.191Z,24.77
2018-12-02T02:00:25.317Z,17.70
2018-12-02T02:02:54.907Z,17.25
2018-12-02T02:05:24.503Z,19.57
2018-12-02T02:07:53.075Z,21.75
2018-12-02T02:10:25.874Z,19.77
2018-12-02T02:12:54.365Z,17.62
2018-12-02T02:15:22.909Z,17.82
2018-12-02T02:17:51.415Z,18.32
2018-12-02T02:20:23.001Z,20.95
2018-12-02T02:22:51.867Z,21.20
2018-12-02T02:25:21.386Z,20.08
2018-12-02T02:27:53.016Z,20.75
2018-12-02T02:30:22.830Z,21.35
2018-12-02T02:32:51.330Z,19.62
2018-12-02T02:35:21.556Z,20.30
2018-12-02T02:37:52.093Z,19.73
2018-12-02T02:40:24.715Z,20.43
2018-12-02T02:42:53.418Z,21.27
2018-12-02T02:45:22.212Z,23.35
2018-12-02T02:47:51.212Z,24.12
2018-12-02T02:50:20.936Z,20.77
2018-12-02T02:52:51.682Z,18.20
2018-12-02T02:55:20.458Z,21.90
2018-12-02T02:57:49.086Z,19.98
2018-12-02T03:00:20.722Z,19.50
2018-12-02T03:02:49.145Z,20.35
2018-12-02T03:05:18.209Z,19.77
2018-12-02T03:07:46.875Z,24.75
2018-12-02T03:10:20.011Z,21.17
2018-12-02T03:12:49.584Z,19.12
2018-12-02T03:15:19.525Z,19.75
2018-12-02T03:17:47.979Z,20.97
2018-12-02T03:20:20.499Z,23.47
2018-12-02T03:22:50.855Z,20.68
2018-12-02T03:25:20.300Z,18.87
2018-12-02T03:27:49.330Z,19.50
2018-12-02T03:30:20.359Z,19.85
2018-12-02T03:32:49.155Z,17.95
2018-12-02T03:35:22.373Z,18.95
2018-12-02T03:37:51.480Z,25.20
2018-12-02T03:40:21.587Z,18.95
2018-12-02T03:42:52.191Z,17.27
2018-12-02T03:45:33.634Z,18.85
2018-12-02T03:48:02.540Z,17.07
2018-12-02T03:50:31.346Z,16.82
2018-12-02T03:53:00.144Z,17.45
2018-12-02T03:55:28.687Z,19.37
2018-12-02T03:57:57.203Z,16.50
2018-12-02T04:00:26.923Z,18.42
2018-12-02T04:02:56.674Z,17.27
2018-12-02T04:05:26.198Z,21.95
2018-12-02T04:07:55.063Z,18.92
2018-12-02T04:10:23.583Z,20.12
2018-12-02T04:12:53.478Z,18.67
2018-12-02T04:15:25.065Z,24.55
2018-12-02T04:17:53.593Z,20.23
2018-12-02T04:20:22.479Z,18.55
2018-12-02T04:22:52.186Z,19.05
2018-12-02T04:25:22.758Z,16.07
2018-12-02T04:27:51.193Z,16.85
2018-12-02T04:30:20.778Z,20.77
2018-12-02T04:32:50.547Z,17.42
2018-12-02T04:35:24.088Z,15.05
2018-12-02T04:37:52.606Z,13.25
2018-12-02T04:40:21.914Z,13.18
2018-12-02T04:42:50.383Z,13.60
2018-12-02T04:45:20.015Z,13.32
2018-12-02T04:47:49.233Z,13.40
2018-12-02T04:50:22.459Z,12.25
2018-12-02T04:52:51.433Z,12.15
2018-12-02T04:55:20.088Z,12.93
2018-12-02T04:57:48.645Z,10.43
2018-12-02T05:00:18.261Z,12.73
2018-12-02T05:02:48.277Z,11.30
2018-12-02T05:05:19.166Z,11.50
2018-12-02T05:07:47.961Z,10.05
2018-12-02T05:10:20.627Z,11.03
2018-12-02T05:12:50.106Z,10.28
2018-12-02T05:15:19.668Z,11.38
2018-12-02T05:17:48.252Z,11.55
2018-12-02T05:20:20.834Z,9.23
2018-12-02T05:22:49.667Z,8.80
2018-12-02T05:25:18.940Z,7.67
2018-12-02T05:27:48.098Z,8.05
2018-12-02T05:30:24.432Z,7.62
2018-12-02T05:32:54.033Z,6.80
2018-12-02T05:35:22.492Z,6.40
2018-12-02T05:37:50.928Z,6.97
2018-12-02T05:40:26.025Z,5.67
2018-12-02T05:42:54.783Z,4.65
2018-12-02T05:45:24.437Z,5.00
2018-12-02T05:47:53.222Z,4.60
2018-12-02T05:50:22.605Z,4.33
2018-12-02T05:52:55.515Z,3.95
2018-12-02T05:55:27.560Z,4.87
2018-12-02T05:57:56.001Z,4.85
2018-12-02T06:00:25.107Z,5.28
2018-12-02T06:02:53.608Z,4.67
2018-12-02T06:05:22.144Z,4.62
2018-12-02T06:07:51.186Z,4.47
2018-12-02T06:10:21.672Z,5.40
2018-12-02T06:12:50.621Z,4.35
2018-12-02T06:15:20.484Z,4.62
2018-12-02T06:17:49.595Z,4.83
2018-12-02T06:20:20.634Z,4.10
2018-12-02T06:22:49.795Z,5.50
2018-12-02T06:25:18.341Z,6.85
2018-12-02T06:27:47.663Z,6.25
2018-12-02T06:30:21.178Z,8.05
2018-12-02T06:32:51.643Z,7.72
2018-12-02T06:35:20.047Z,7.65
2018-12-02T06:37:48.467Z,7.25
2018-12-02T06:40:20.644Z,6.90
2018-12-02T06:42:49.512Z,8.15
2018-12-02T06:45:18.267Z,7.20
2018-12-02T06:47:46.776Z,8.53
2018-12-02T06:50:19.429Z,6.70
2018-12-02T06:52:47.983Z,7.45
2018-12-02T06:55:25.640Z,7.40
2018-12-02T06:58:02.795Z,8.43
2018-12-02T07:00:51.532Z,9.15
2018-12-02T07:03:47.608Z,6.78
2018-12-02T07:06:17.099Z,7.15
2018-12-02T07:08:46.094Z,6.92
2018-12-02T07:11:14.511Z,5.50
2018-12-02T07:13:42.989Z,5.55
2018-12-02T07:16:11.460Z,5.83
2018-12-02T07:18:43.785Z,7.03
2018-12-02T07:21:17.635Z,8.43
2018-12-02T07:23:51.104Z,6.20
2018-12-02T07:26:22.898Z,10.78
2018-12-02T07:28:51.831Z,6.58
2018-12-02T07:31:20.353Z,8.55
2018-12-02T07:33:48.866Z,8.60
2018-12-02T07:36:17.617Z,9.13
2018-12-02T07:38:49.473Z,11.60
2018-12-02T07:41:17.973Z,10.20
2018-12-02T07:43:46.739Z,12.80
2018-12-02T07:46:15.129Z,11.45
2018-12-02T07:48:43.580Z,9.45
2018-12-02T07:51:12.252Z,11.03
2018-12-02T07:53:40.648Z,13.22
2018-12-02T07:56:09.088Z,12.70
2018-12-02T07:58:37.494Z,11.12
2018-12-02T08:01:06.325Z,14.15
2018-12-02T08:03:35.569Z,11.15
2018-12-02T08:06:04.137Z,8.35
2018-12-02T08:08:32.661Z,10.40
2018-12-02T08:11:01.378Z,9.08
2018-12-02T08:13:29.848Z,7.72
2018-12-02T08:15:58.712Z,10.60
2018-12-02T08:18:27.108Z,10.32
2018-12-02T08:20:56.885Z,9.45
2018-12-02T08:23:25.449Z,6.12
2018-12-02T08:25:54.043Z,5.95
2018-12-02T08:28:22.700Z,10.00
2018-12-02T08:30:51.176Z,7.95
2018-12-02T08:33:19.653Z,12.82
2018-12-02T08:35:48.223Z,8.95
2018-12-02T08:38:16.715Z,9.88
2018-12-02T08:40:45.347Z,7.53
2018-12-02T08:43:13.948Z,7.85
2018-12-02T08:45:42.898Z,8.53
2018-12-02T08:48:11.516Z,11.25
2018-12-02T08:50:40.074Z,8.93
2018-12-02T08:53:08.548Z,8.10
2018-12-02T08:55:37.038Z,10.23
2018-12-02T08:58:05.654Z,11.93
2018-12-02T09:00:35.245Z,7.65
2018-12-02T09:03:06.684Z,8.58
2018-12-02T09:05:35.184Z,8.55
2018-12-02T09:08:03.843Z,10.03
2018-12-02T09:10:33.383Z,9.28
2018-12-02T09:13:03.532Z,14.38
2018-12-02T09:15:32.059Z,10.45
2018-12-02T09:18:00.627Z,8.53
2018-12-02T09:20:31.632Z,8.70
2018-12-02T09:23:00.108Z,8.48
2018-12-02T09:25:28.537Z,12.37
2018-12-02T09:27:57.397Z,6.00
2018-12-02T09:30:27.896Z,10.25
2018-12-02T09:32:56.432Z,6.20
2018-12-02T09:35:24.962Z,11.60
2018-12-02T09:37:53.589Z,10.35
2018-12-02T09:40:22.041Z,13.62
2018-12-02T09:42:51.812Z,7.08
2018-12-02T09:45:23.675Z,7.90
2018-12-02T09:47:52.301Z,4.92
2018-12-02T09:50:20.892Z,2.72
2018-12-02T09:52:49.427Z,5.47
2018-12-02T09:55:24.329Z,7.60
2018-12-02T09:57:53.467Z,3.92
2018-12-02T10:00:22.299Z,6.28
2018-12-02T10:02:50.793Z,10.20
2018-12-02T10:05:19.307Z,11.03
2018-12-02T10:07:48.323Z,8.28
2018-12-02T10:10:22.873Z,14.73
2018-12-02T10:12:55.155Z,8.70
2018-12-02T10:15:23.791Z,9.58
2018-12-02T10:17:52.299Z,8.93
2018-12-02T10:20:20.914Z,12.30
2018-12-02T10:22:49.374Z,11.63
2018-12-02T10:25:18.730Z,13.18
2018-12-02T10:27:47.144Z,14.10
2018-12-02T10:30:20.880Z,11.53
2018-12-02T10:32:50.380Z,10.43
2018-12-02T10:35:19.061Z,15.38
2018-12-02T10:37:48.762Z,16.93
2018-12-02T10:40:21.407Z,12.82
2018-12-02T10:42:50.268Z,11.68
2018-12-02T10:45:23.144Z,12.78
2018-12-02T10:47:54.615Z,10.93
2018-12-02T10:50:27.809Z,14.65
2018-12-02T10:52:57.871Z,11.95
2018-12-02T10:55:37.391Z,10.53
2018-12-02T10:58:08.790Z,11.35
2018-12-02T11:00:45.059Z,12.78
2018-12-02T11:03:13.849Z,13.78
2018-12-02T11:05:42.393Z,9.85
2018-12-02T11:08:10.923Z,9.33
2018-12-02T11:10:39.718Z,12.73
2018-12-02T11:13:08.330Z,12.18
2018-12-02T11:15:37.220Z,15.50
2018-12-02T11:18:07.974Z,11.80
2018-12-02T11:20:36.763Z,10.05
2018-12-02T11:23:06.648Z,13.18
2018-12-02T11:25:35.407Z,9.75
2018-12-02T11:28:06.092Z,14.30
2018-12-02T11:30:34.934Z,14.05
2018-12-02T11:33:04.088Z,8.28
2018-12-02T11:35:32.976Z,10.32
2018-12-02T11:38:01.923Z,12.47
2018-12-02T11:40:30.409Z,10.68
2018-12-02T11:42:59.211Z,11.08
2018-12-02T11:45:27.793Z,19.00
2018-12-02T11:47:56.820Z,10.65
2018-12-02T11:50:26.224Z,19.85
2018-12-02T11:52:54.820Z,10.45
2018-12-02T11:55:23.587Z,10.55
2018-12-02T11:57:52.217Z,13.58
2018-12-02T12:00:26.105Z,10.18
2018-12-02T12:02:55.428Z,14.35
2018-12-02T12:05:23.927Z,15.25
2018-12-02T12:07:52.656Z,21.60
2018-12-02T12:10:22.827Z,18.17
2018-12-02T12:12:52.620Z,16.45
2018-12-02T12:15:23.518Z,13.65
2018-12-02T12:17:52.192Z,19.35
2018-12-02T12:20:24.063Z,17.50
2018-12-02T12:22:53.262Z,12.43
2018-12-02T12:25:21.929Z,11.38
2018-12-02T12:27:52.505Z,13.95
2018-12-02T12:30:31.739Z,15.30
2018-12-02T12:33:00.628Z,13.58
2018-12-02T12:35:29.429Z,11.53
2018-12-02T12:37:57.984Z,17.07
2018-12-02T12:40:29.873Z,15.53
2018-12-02T12:43:01.082Z,15.78
2018-12-02T12:45:29.945Z,12.58
2018-12-02T12:47:58.430Z,12.55
2018-12-02T12:50:26.908Z,10.90
2018-12-02T12:52:55.639Z,23.98
2018-12-02T12:55:24.350Z,13.28
2018-12-02T12:57:52.857Z,13.50
2018-12-02T13:00:23.567Z,15.23
2018-12-02T13:02:52.539Z,23.90
2018-12-02T13:05:22.075Z,24.37
2018-12-02T13:07:50.896Z,18.57
2018-12-02T13:10:19.482Z,19.65
2018-12-02T13:12:48.105Z,16.02
2018-12-02T13:15:21.439Z,18.37
2018-12-02T13:17:55.739Z,17.12
2018-12-02T13:20:26.333Z,15.38
2018-12-02T13:22:54.767Z,16.73
2018-12-02T13:25:23.221Z,13.50
2018-12-02T13:27:57.943Z,14.65
2018-12-02T13:30:26.499Z,15.25
2018-12-02T13:32:55.467Z,12.15
2018-12-02T13:35:24.424Z,10.78
2018-12-02T13:37:52.912Z,14.35
2018-12-02T13:40:22.421Z,9.55
2018-12-02T13:42:58.505Z,11.03
2018-12-02T13:45:28.487Z,13.65
2018-12-02T13:47:56.950Z,12.03
2018-12-02T13:50:25.667Z,8.68
2018-12-02T13:52:55.466Z,12.65
2018-12-02T13:55:27.261Z,10.50
2018-12-02T13:57:55.880Z,9.05
2018-12-02T14:00:25.180Z,7.40
2018-12-02T14:03:06.660Z,7.12
2018-12-02T14:05:36.326Z,8.35
2018-12-02T14:08:04.950Z,7.70
2018-12-02T14:10:33.647Z,9.78
2018-12-02T14:13:03.798Z,8.03
2018-12-02T14:15:42.105Z,7.33
2018-12-02T14:18:24.673Z,8.73
2018-12-02T14:20:53.606Z,12.65
2018-12-02T14:23:22.254Z,5.85
2018-12-02T14:25:50.808Z,6.92
2018-12-02T14:28:24.566Z,5.55
2018-12-02T14:30:53.130Z,8.80
2018-12-02T14:33:22.730Z,5.92
2018-12-02T14:35:51.210Z,11.20
2018-12-02T14:38:19.727Z,6.45
2018-12-02T14:40:48.332Z,7.22
2018-12-02T14:43:16.817Z,3.40
2018-12-02T14:45:45.441Z,8.45
2018-12-02T14:48:14.118Z,7.92
2018-12-02T14:50:42.871Z,7.75
2018-12-02T14:53:11.468Z,5.12
2018-12-02T14:55:39.992Z,4.55
2018-12-02T14:58:08.534Z,12.25
2018-12-02T15:00:37.743Z,6.03
2018-12-02T15:03:07.067Z,6.55
2018-12-02T15:05:35.620Z,6.58
2018-12-02T15:08:04.120Z,8.48
2018-12-02T15:10:32.489Z,9.60
2018-12-02T15:13:01.674Z,6.65
2018-12-02T15:15:30.137Z,11.28
2018-12-02T15:17:58.576Z,9.88
2018-12-02T15:20:27.116Z,7.95
2018-12-02T15:22:55.576Z,9.23
2018-12-02T15:25:24.186Z,6.87
2018-12-02T15:27:53.024Z,9.90
2018-12-02T15:30:21.741Z,9.38
2018-12-02T15:32:51.103Z,11.93
2018-12-02T15:35:20.093Z,8.23
2018-12-02T15:37:48.633Z,6.47
2018-12-02T15:40:18.201Z,10.03
2018-12-02T15:42:51.681Z,7.45
2018-12-02T15:45:21.552Z,6.03
2018-12-02T15:47:50.035Z,10.70
2018-12-02T15:50:20.993Z,5.42
2018-12-02T15:52:49.464Z,9.73
2018-12-02T15:55:24.474Z,8.98
2018-12-02T15:57:53.152Z,8.20
2018-12-02T16:00:24.649Z,7.67
2018-12-02T16:02:53.221Z,8.88
2018-12-02T16:05:21.717Z,6.45
2018-12-02T16:07:50.274Z,6.53
2018-12-02T16:10:18.777Z,5.95
2018-12-02T16:12:48.621Z,4.30
2018-12-02T16:15:18.509Z,10.15
2018-12-02T16:17:48.386Z,5.20
2018-12-02T16:20:20.301Z,4.97
2018-12-02T16:22:48.894Z,8.08
2018-12-02T16:25:17.513Z,9.60
2018-12-02T16:27:47.198Z,11.50
2018-12-02T16:30:18.276Z,8.45
2018-12-02T16:32:49.896Z,15.45
2018-12-02T16:35:18.638Z,8.68
2018-12-02T16:37:48.267Z,13.90
2018-12-02T16:40:19.770Z,6.72
2018-12-02T16:42:48.208Z,12.37
2018-12-02T16:45:17.981Z,13.05
2018-12-02T16:47:47.775Z,10.85
2018-12-02T16:50:26.554Z,9.65
2018-12-02T16:52:56.202Z,8.50
2018-12-02T16:55:27.062Z,11.50
2018-12-02T17:00:08.929Z,9.60
2018-12-02T17:02:37.338Z,15.70
2018-12-02T17:05:07.883Z,10.03
2018-12-02T17:07:36.234Z,8.63
2018-12-02T17:10:06.850Z,18.32
2018-12-02T17:12:35.233Z,20.20
2018-12-02T17:15:04.300Z,13.05
2018-12-02T17:17:32.724Z,15.70
2018-12-02T17:20:01.158Z,18.60
2018-12-02T17:22:29.697Z,17.90
2018-12-02T17:24:58.165Z,12.58
2018-12-02T17:27:26.550Z,22.95
2018-12-02T17:29:55.000Z,15.75
2018-12-02T17:32:23.486Z,19.55
2018-12-02T17:34:51.892Z,13.65
2018-12-02T17:37:20.275Z,18.87
2018-12-02T17:39:51.741Z,18.20
2018-12-02T17:42:20.211Z,13.03
2018-12-02T17:44:48.627Z,15.03
2018-12-02T17:47:17.047Z,16.12
2018-12-02T17:49:45.391Z,11.38
2018-12-02T17:52:14.134Z,15.20
2018-12-02T17:54:47.523Z,16.42
2018-12-02T17:57:15.999Z,20.55
2018-12-02T17:59:44.473Z,14.68
2018-12-02T18:02:12.944Z,12.10
2018-12-02T18:04:41.404Z,13.45
2018-12-02T18:07:10.327Z,13.55
2018-12-02T18:09:39.067Z,16.90
2018-12-02T18:12:07.602Z,9.95
2018-12-02T18:14:36.103Z,11.78
2018-12-02T18:17:04.908Z,10.70
2018-12-02T18:19:33.683Z,9.13
2018-12-02T18:22:02.043Z,16.80
2018-12-02T18:24:30.467Z,14.38
2018-12-02T18:26:58.899Z,17.17
2018-12-02T18:29:27.376Z,14.30
2018-12-02T18:31:55.805Z,12.70
2018-12-02T18:34:24.306Z,9.58
2018-12-02T18:36:53.339Z,19.50
2018-12-02T18:39:21.815Z,12.28
2018-12-02T18:41:52.547Z,13.93
2018-12-02T18:44:21.005Z,13.08
2018-12-02T18:46:49.565Z,13.00
2018-12-02T18:49:18.475Z,12.43
2018-12-02T18:51:46.945Z,12.47
2018-12-02T18:54:15.362Z,16.40
2018-12-02T18:56:43.896Z,13.32
2018-12-02T18:59:12.376Z,16.07
2018-12-02T19:01:40.727Z,18.70
2018-12-02T19:04:09.917Z,19.15
2018-12-02T19:06:38.410Z,14.03
2018-12-02T19:09:10.039Z,18.75
2018-12-02T19:11:38.448Z,10.68
2018-12-02T19:14:06.907Z,13.40
2018-12-02T19:16:35.564Z,13.93
2018-12-02T19:19:12.239Z,12.65
2018-12-02T19:21:40.707Z,14.18
2018-12-02T19:24:09.446Z,15.83
2018-12-02T19:26:37.950Z,13.35
2018-12-02T19:29:07.179Z,17.55
2018-12-02T19:31:35.886Z,9.23
2018-12-02T19:34:04.440Z,13.90
2018-12-02T19:36:35.146Z,11.70
2018-12-02T19:39:03.786Z,14.60
2018-12-02T19:41:32.257Z,9.20
2018-12-02T19:44:00.716Z,14.05
2018-12-02T19:46:29.227Z,15.63
2018-12-02T19:48:57.766Z,16.07
2018-12-02T19:51:26.392Z,13.75
2018-12-02T19:53:54.874Z,15.45
2018-12-02T19:56:23.340Z,14.05
2018-12-02T19:58:52.631Z,12.65
2018-12-02T20:01:21.066Z,12.33
2018-12-02T20:03:49.529Z,12.55
2018-12-02T20:06:17.873Z,12.18
2018-12-02T20:08:47.075Z,15.40
2018-12-02T20:11:14.802Z,11.73
2018-12-02T20:13:43.466Z,17.25
2018-12-02T20:16:18.745Z,12.93
2018-12-02T20:18:48.833Z,15.50
2018-12-02T20:21:19.015Z,15.35
2018-12-02T20:23:52.965Z,19.75
2018-12-02T20:26:21.599Z,10.23
2018-12-02T20:28:52.323Z,12.88
2018-12-02T20:31:23.671Z,13.00
2018-12-02T20:33:52.469Z,11.30
2018-12-02T20:36:20.920Z,9.43
2018-12-02T20:38:49.639Z,9.23
2018-12-02T20:41:18.158Z,8.38
2018-12-02T20:43:46.608Z,9.45
2018-12-02T20:46:15.101Z,7.28
2018-12-02T20:48:43.515Z,8.53
2018-12-02T20:51:11.979Z,6.20
2018-12-02T20:53:40.403Z,7.70
2018-12-02T20:56:08.793Z,5.22
2018-12-02T20:58:37.132Z,8.03
2018-12-02T21:01:05.935Z,8.28
2018-12-02T21:03:39.107Z,8.55
2018-12-02T21:06:10.605Z,7.37
2018-12-02T21:08:39.062Z,7.08
2018-12-02T21:11:07.466Z,7.70
2018-12-02T21:13:35.938Z,6.35
2018-12-02T21:16:04.690Z,10.60
2018-12-02T21:18:34.920Z,9.48
2018-12-02T21:21:03.641Z,11.93
2018-12-02T21:23:32.029Z,8.98
2018-12-02T21:26:00.722Z,10.98
2018-12-02T21:28:29.232Z,10.98
2018-12-02T21:30:57.799Z,12.82
2018-12-02T21:33:26.260Z,12.18
2018-12-02T21:35:54.826Z,12.75
2018-12-02T21:38:23.260Z,10.08
2018-12-02T21:40:52.263Z,12.53
2018-12-02T21:43:20.721Z,10.20
2018-12-02T21:45:49.091Z,8.13
2018-12-02T21:48:19.113Z,9.93
2018-12-02T21:50:51.855Z,12.00
2018-12-02T21:53:20.267Z,10.28
2018-12-02T21:55:48.622Z,10.72
2018-12-02T21:58:17.366Z,10.45
2018-12-02T22:00:50.061Z,11.00
2018-12-02T22:03:18.464Z,12.37
2018-12-02T22:05:46.908Z,9.80
2018-12-02T22:08:15.329Z,8.13
2018-12-02T22:10:43.956Z,8.08
2018-12-02T22:13:12.501Z,6.72
2018-12-02T22:15:40.932Z,12.88
2018-12-02T22:18:09.313Z,6.47
2018-12-02T22:20:37.890Z,11.63
2018-12-02T22:24:01.249Z,8.23
2018-12-02T22:26:46.377Z,15.93
2018-12-02T22:29:33.697Z,9.03
2018-12-02T22:32:20.493Z,12.43
2018-12-02T22:35:08.226Z,9.85
2018-12-02T22:37:54.826Z,7.08
2018-12-02T22:40:41.879Z,7.15
2018-12-02T22:43:28.593Z,4.28
2018-12-02T22:46:15.220Z,8.45
2018-12-02T22:49:01.724Z,9.15
2018-12-02T22:51:48.804Z,4.70
2018-12-02T22:54:35.683Z,4.58
2018-12-02T22:57:23.389Z,6.12
2018-12-02T23:03:00.491Z,5.55
2018-12-02T23:05:46.889Z,7.35
2018-12-02T23:08:33.494Z,7.40
2018-12-02T23:11:20.380Z,8.00
2018-12-02T23:14:07.706Z,8.10
2018-12-02T23:16:54.709Z,8.78
2018-12-02T23:19:24.523Z,10.35
2018-12-02T23:22:13.187Z,11.28
2018-12-02T23:25:01.918Z,12.05
